Huvudsida
METAR-TAF:

METAR-TAF

Flygplatser :

Boscombe Down, England

latitud: 51-10N, longitud: 001-45W, höjd: 124 m

Aktuellt väderrapport

Denna rapport gjordes för 1 timme och 16 minuter sedan, klockan 13:50 UTC
Vind 25 kt från nordost
Temperatur 8°C
Fuktighet 39%
Tryck 1037 hPa
Sikt 10 km eller mer

METAR: EGDM 291350Z AUTO 05025KT 9999 SCT050/// 08/M05 Q1037

Tid: 16:06 (15:06 UTC)


TAF: saknas

Aktuella väderrapporter och prognoser från 4000 flygplatser (METAR- och TAF-rapporter).

De tillgängliga stationerna syns som gula och röda prickar på kartan.

För musen över prickarna för att se namnen på stationerna.

Klicka sedan för att få väderrapporter och prognoser.

För att ändra kartan: Klicka på de gröna knapparna med ett svart kors på för att zooma in; den gröna knappen med ett streck på för att zooma ut; eller på de gröna pilarna för angränsande kartor.


METAR-TAF: